Terminal Aerodrome Forecast
Issued by NWS

Current Version | Previous Version | Text Only | Print | Product List | Glossary On
Versions: 1 2 3 4 5 6 7 8 9 10 11 12
659
FTUS45 KRIW 211723
TAFCPR
TAF
KCPR 211723Z 2118/2218 26016G26KT P6SM FEW090
     FM220100 23014KT P6SM SCT200
     FM220900 23020G30KT P6SM SCT200
     FM221500 23032G40KT P6SM FEW070 SCT200=

USA.gov is the U.S. government's official web portal to all federal, state and local government web resources and services.